Time;durP1;ratioP1;P1;durP2;ratioP2;P2;SDS_P1;SDS_P2;PMS_P1;PMS_P2;Temp;Humidity;BMP_temperature;BMP_pressure;BME280_temperature;BME280_humidity;BME280_pressure;Samples;Min_cycle;Max_cycle;Signal;HPM_P1;HPM_P2
2023/11/23 00:02:29;;;;;;;14.70;13.20;;;1.60;99.90;;;2.12;100.00;99083.28;10402634;28;20227;-66
2023/11/23 00:07:33;;;;;;;15.40;13.73;;;1.50;99.90;;;2.02;100.00;99089.84;10409551;28;20238;-64
2023/11/23 00:12:37;;;;;;;16.17;14.57;;;1.30;99.90;;;1.94;100.00;99094.78;10403534;28;20261;-65
2023/11/23 00:17:40;;;;;;;15.80;14.10;;;1.30;99.90;;;1.83;100.00;99095.22;10416566;28;20293;-65
2023/11/23 00:22:43;;;;;;;16.10;14.40;;;1.20;99.90;;;1.76;100.00;99078.53;10403276;28;20224;-64
2023/11/23 00:27:48;;;;;;;16.03;14.33;;;1.20;99.90;;;1.72;100.00;99069.75;10401000;28;20233;-64
2023/11/23 00:32:52;;;;;;;15.20;13.70;;;1.00;99.90;;;1.62;100.00;99082.03;10397612;28;20218;-64
2023/11/23 00:37:55;;;;;;;15.80;14.20;;;1.00;99.90;;;1.59;100.00;99061.53;10414461;28;20218;-66
2023/11/23 00:43:00;;;;;;;16.80;14.13;;;1.00;99.90;;;1.51;100.00;99048.09;10404706;28;20247;-65
2023/11/23 00:48:03;;;;;;;15.87;13.93;;;0.90;99.90;;;1.48;100.00;99051.91;10405047;28;20233;-66
2023/11/23 00:53:07;;;;;;;15.77;14.00;;;0.80;99.90;;;1.43;100.00;99068.13;10398688;28;20232;-64
2023/11/23 00:58:11;;;;;;;14.37;12.83;;;0.80;99.90;;;1.47;100.00;99055.16;10396627;28;20316;-65
2023/11/23 01:03:14;;;;;;;15.70;14.17;;;0.80;99.90;;;1.36;100.00;99061.50;10402221;23;20234;-65
2023/11/23 01:08:18;;;;;;;16.60;14.83;;;0.80;99.90;;;1.39;100.00;99056.81;10227686;28;20233;-65
2023/11/23 01:13:22;;;;;;;17.37;15.30;;;0.80;99.90;;;1.46;100.00;99064.34;10198591;28;20519;-63
2023/11/23 01:18:25;;;;;;;17.57;15.73;;;0.80;99.90;;;1.37;100.00;99067.44;10201878;28;20232;-64
2023/11/23 01:23:29;;;;;;;17.60;15.73;;;0.70;99.90;;;1.31;100.00;99055.94;10190424;28;20241;-64
2023/11/23 01:28:34;;;;;;;18.20;16.27;;;0.80;99.90;;;1.37;100.00;99059.88;10190670;28;20237;-64
2023/11/23 01:33:37;;;;;;;17.93;16.03;;;0.70;99.90;;;1.39;100.00;99055.91;10201695;28;20268;-64
2023/11/23 01:38:40;;;;;;;16.80;15.10;;;0.80;99.90;;;1.40;100.00;99057.69;10257428;28;20312;-64
2023/11/23 01:43:46;;;;;;;16.90;15.10;;;0.80;99.90;;;1.41;100.00;99049.44;10206799;28;20233;-64
2023/11/23 01:48:52;;;;;;;15.67;13.97;;;0.70;99.90;;;1.29;100.00;99044.81;10221745;28;20236;-66
2023/11/23 01:53:55;;;;;;;16.40;14.63;;;0.60;99.90;;;1.20;100.00;99043.78;10232936;28;20240;-65
2023/11/23 01:59:01;;;;;;;16.23;14.50;;;0.60;99.90;;;1.21;100.00;99047.22;10224878;28;20221;-65
2023/11/23 02:04:05;;;;;;;15.70;14.03;;;0.60;99.90;;;1.23;100.00;99034.06;10229132;28;20236;-65
2023/11/23 02:09:08;;;;;;;15.20;13.70;;;0.60;99.90;;;1.12;100.00;99029.47;10224230;28;20310;-64
2023/11/23 02:14:13;;;;;;;16.37;14.67;;;0.50;99.90;;;1.19;100.00;99020.97;10229030;28;20283;-65
2023/11/23 02:19:16;;;;;;;16.23;14.13;;;0.50;99.90;;;1.05;100.00;99016.91;10226780;28;20251;-65
2023/11/23 02:24:21;;;;;;;16.20;14.37;;;0.40;99.90;;;0.84;100.00;99026.34;10211256;28;20299;-64
2023/11/23 02:29:24;;;;;;;16.40;14.63;;;0.30;99.90;;;0.95;100.00;99034.22;10203002;28;20240;-64
2023/11/23 02:34:27;;;;;;;17.83;15.93;;;0.30;99.90;;;0.94;100.00;99028.25;10192450;28;20244;-65
2023/11/23 02:39:32;;;;;;;19.17;16.00;;;0.40;99.90;;;0.96;100.00;99020.91;10241922;28;20997;-65
2023/11/23 02:44:35;;;;;;;15.83;13.57;;;0.40;99.90;;;0.96;100.00;99008.31;10194746;28;20785;-64
2023/11/23 02:49:39;;;;;;;15.80;14.20;;;0.40;99.90;;;0.94;100.00;99008.13;10219091;28;20712;-64
2023/11/23 02:54:43;;;;;;;15.60;13.97;;;0.40;99.90;;;0.93;100.00;99003.84;10218120;28;20242;-65
2023/11/23 02:59:47;;;;;;;17.97;15.73;;;0.30;99.90;;;0.90;100.00;98999.34;10214763;28;20296;-64
2023/11/23 03:04:50;;;;;;;17.40;15.27;;;0.30;99.90;;;0.88;100.00;99020.91;10232411;28;20257;-65
2023/11/23 03:09:54;;;;;;;17.27;15.20;;;0.30;99.90;;;0.88;100.00;99033.50;10209794;28;20316;-64
2023/11/23 03:14:58;;;;;;;15.80;13.87;;;0.30;99.90;;;0.84;100.00;99038.03;10194068;28;20328;-64
2023/11/23 03:20:01;;;;;;;16.80;15.07;;;0.30;99.90;;;0.88;100.00;99028.47;10205637;28;20292;-64
2023/11/23 03:25:07;;;;;;;17.47;15.57;;;0.30;99.90;;;0.88;100.00;99023.44;10216991;28;20304;-65
2023/11/23 03:30:12;;;;;;;18.03;14.93;;;0.20;99.90;;;0.90;100.00;99032.06;10224921;28;20707;-65
2023/11/23 03:35:15;;;;;;;18.77;14.80;;;0.20;99.90;;;0.82;100.00;99029.41;10214011;28;20765;-64
2023/11/23 03:40:19;;;;;;;18.77;15.80;;;0.20;99.90;;;0.79;100.00;99027.44;10206249;28;20934;-64
2023/11/23 03:45:23;;;;;;;16.83;15.03;;;0.20;99.90;;;0.83;100.00;99029.59;10223295;28;20647;-64
2023/11/23 03:50:26;;;;;;;19.70;16.07;;;0.20;99.90;;;0.78;100.00;99035.72;10241055;28;20229;-64
2023/11/23 03:55:30;;;;;;;20.50;17.93;;;0.20;99.90;;;0.79;100.00;99035.00;10216561;28;20251;-65
2023/11/23 04:00:34;;;;;;;21.83;17.30;;;0.20;99.90;;;0.52;100.00;99024.31;10219427;28;20229;-65
2023/11/23 04:05:38;;;;;;;20.17;17.53;;;0.00;99.90;;;0.36;100.00;99025.06;10229147;28;20243;-64
2023/11/23 04:10:42;;;;;;;20.03;16.20;;;-0.10;99.90;;;0.43;100.00;99025.06;10234893;28;20293;-65
2023/11/23 04:15:46;;;;;;;20.90;17.17;;;-0.10;99.90;;;0.49;100.00;99013.88;10235226;28;20248;-64
2023/11/23 04:20:49;;;;;;;25.80;18.20;;;0.00;99.90;;;0.48;100.00;99007.97;10210209;28;20230;-64
2023/11/23 04:25:54;;;;;;;20.43;17.00;;;0.00;99.90;;;0.55;100.00;99009.56;10217159;28;20239;-65
2023/11/23 04:30:57;;;;;;;19.17;16.00;;;0.00;99.90;;;0.43;100.00;99001.53;10230218;28;20798;-64
2023/11/23 04:36:00;;;;;;;17.97;16.03;;;-0.10;99.90;;;0.30;100.00;99001.72;10207066;28;20228;-65
2023/11/23 04:41:06;;;;;;;16.87;15.03;;;-0.30;99.90;;;0.28;100.00;98988.06;10219919;28;20604;-65
2023/11/23 04:46:09;;;;;;;16.83;14.27;;;-0.20;99.90;;;0.34;100.00;98988.78;10208443;28;20254;-65
2023/11/23 04:51:12;;;;;;;18.43;16.10;;;-0.20;99.90;;;0.35;100.00;98970.47;10211511;28;20792;-65
2023/11/23 04:56:17;;;;;;;17.53;15.27;;;-0.20;99.90;;;0.22;100.00;98973.19;10226185;28;20252;-64
2023/11/23 05:01:20;;;;;;;22.17;15.73;;;-0.30;99.90;;;0.18;100.00;98970.16;10221301;28;20273;-65
2023/11/23 05:06:24;;;;;;;20.30;15.93;;;-0.40;99.90;;;0.22;100.00;98982.34;10211340;28;20244;-65
2023/11/23 05:11:29;;;;;;;20.73;16.97;;;-0.30;99.90;;;0.28;100.00;98967.97;10199170;28;20557;-63
2023/11/23 05:16:32;;;;;;;23.83;17.93;;;-0.30;99.90;;;0.19;100.00;98971.94;10191386;28;20259;-65
2023/11/23 05:21:36;;;;;;;19.43;16.00;;;-0.40;99.90;;;0.18;100.00;98975.19;10192224;28;20655;-66
2023/11/23 05:26:42;;;;;;;20.67;17.17;;;-0.40;99.90;;;0.09;100.00;98972.53;10193736;28;20594;-64
2023/11/23 05:31:45;;;;;;;21.50;18.00;;;-0.50;99.90;;;0.17;100.00;98978.41;10187269;28;20329;-65
2023/11/23 05:36:48;;;;;;;18.77;16.77;;;-0.40;99.90;;;0.23;100.00;98979.13;10212389;28;20618;-64
2023/11/23 05:41:53;;;;;;;20.07;17.57;;;-0.40;99.90;;;0.16;100.00;98976.63;10229343;28;20236;-65
2023/11/23 05:46:56;;;;;;;20.53;18.27;;;-0.40;99.90;;;0.18;100.00;98986.16;10190137;29;20347;-66
2023/11/23 05:51:59;;;;;;;20.47;17.77;;;-0.40;99.90;;;0.14;100.00;99001.59;10195597;29;20258;-66
2023/11/23 05:57:05;;;;;;;19.97;17.37;;;-0.40;99.90;;;0.09;100.00;99004.31;10182110;28;20231;-66
2023/11/23 06:02:08;;;;;;;22.50;18.57;;;-0.50;99.90;;;0.11;100.00;99012.91;10201190;28;20789;-67
2023/11/23 06:07:11;;;;;;;22.13;17.67;;;-0.40;99.90;;;0.20;100.00;99008.91;10201062;28;20994;-65
2023/11/23 06:12:16;;;;;;;18.17;15.93;;;-0.40;99.90;;;0.06;100.00;98996.38;10203969;28;20258;-66
2023/11/23 06:17:19;;;;;;;19.20;15.33;;;-0.50;99.90;;;0.06;100.00;99004.84;10197850;28;20292;-65
2023/11/23 06:22:22;;;;;;;19.73;16.50;;;-0.50;99.90;;;0.06;100.00;99008.94;10204534;28;20326;-66
2023/11/23 06:27:27;;;;;;;19.70;16.17;;;-0.50;99.90;;;0.06;100.00;99024.94;10215064;28;20773;-65
2023/11/23 06:32:30;;;;;;;22.17;17.37;;;-0.50;99.90;;;0.08;100.00;99026.00;10216343;28;20801;-66
2023/11/23 06:37:34;;;;;;;21.23;17.40;;;-0.50;99.90;;;-0.03;100.00;99024.78;10206546;28;20230;-66
2023/11/23 06:42:38;;;;;;;21.63;17.67;;;-0.60;99.90;;;-0.01;100.00;99023.31;10204152;28;20276;-65
2023/11/23 06:47:41;;;;;;;21.57;18.03;;;-0.50;99.90;;;0.00;100.00;99019.22;10217997;28;20727;-66
2023/11/23 06:52:45;;;;;;;24.63;18.90;;;-0.60;99.90;;;-0.16;100.00;99021.53;10204435;28;20241;-66
2023/11/23 06:57:49;;;;;;;21.63;18.10;;;-0.60;99.90;;;-0.24;100.00;99024.78;10191599;28;20310;-65
2023/11/23 07:02:55;;;;;;;21.57;17.10;;;-0.60;99.90;;;-0.09;100.00;99011.47;10185981;29;20713;-66
2023/11/23 07:07:59;;;;;;;25.17;18.43;;;-0.60;99.90;;;-0.11;100.00;98997.88;10190946;29;20983;-65
2023/11/23 07:13:04;;;;;;;25.30;19.27;;;-0.60;99.90;;;0.03;100.00;98993.53;10188166;28;20241;-65
2023/11/23 07:18:07;;;;;;;25.40;19.37;;;-0.40;99.90;;;0.23;100.00;98984.16;10191624;29;20223;-67
2023/11/23 07:23:10;;;;;;;28.73;20.00;;;-0.20;99.90;;;0.52;100.00;98990.00;10216232;28;20251;-65
2023/11/23 07:28:15;;;;;;;25.70;18.70;;;0.10;99.90;;;0.88;100.00;98993.25;10224477;28;20292;-66
2023/11/23 07:33:18;;;;;;;23.90;19.03;;;0.40;99.90;;;1.22;100.00;99009.59;10223170;28;20236;-66
2023/11/23 07:38:22;;;;;;;20.40;17.20;;;0.70;99.90;;;1.35;100.00;99019.44;10223621;28;20604;-67
2023/11/23 07:43:27;;;;;;;22.47;18.67;;;0.70;99.90;;;1.79;100.00;99020.91;10218891;29;20275;-65
2023/11/23 07:48:31;;;;;;;22.20;17.63;;;1.10;99.90;;;2.12;100.00;99008.56;10213311;29;20254;-66
2023/11/23 07:53:34;;;;;;;20.27;16.87;;;1.60;99.90;;;2.19;100.00;98984.88;10195071;29;20256;-65
2023/11/23 07:58:38;;;;;;;21.67;17.70;;;1.70;99.90;;;2.80;100.00;98980.38;10214036;28;20716;-65
2023/11/23 08:03:41;;;;;;;20.07;17.00;;;2.30;99.90;;;2.90;98.17;98983.16;10257167;28;20872;-65
2023/11/23 08:08:45;;;;;;;19.10;16.03;;;2.30;99.90;;;2.57;99.87;98994.00;10185372;28;20240;-65
2023/11/23 08:13:50;;;;;;;16.20;14.43;;;2.00;99.90;;;2.63;100.00;98976.09;10194469;28;20231;-65
2023/11/23 08:18:53;;;;;;;16.97;15.17;;;2.30;99.90;;;3.24;100.00;98981.63;10219431;28;20572;-65
2023/11/23 08:23:56;;;;;;;22.60;17.93;;;2.70;99.90;;;3.69;98.69;98992.09;10227065;28;20238;-64
2023/11/23 08:29:00;;;;;;;56.00;41.07;;;3.20;99.90;;;3.99;96.67;98991.78;10202660;28;20244;-67
2023/11/23 08:34:04;;;;;;;24.13;21.50;;;3.50;99.90;;;4.36;95.92;98996.34;10208048;28;20320;-65
2023/11/23 08:39:11;;;;;;;20.97;17.87;;;3.80;99.90;;;4.68;90.94;98991.03;10239250;28;21026;-67
2023/11/23 08:44:16;;;;;;;17.83;16.03;;;4.10;99.90;;;5.09;88.30;98984.03;10237632;28;20240;-67
2023/11/23 08:49:19;;;;;;;30.87;21.33;;;4.50;99.90;;;5.08;89.09;98987.31;10203163;29;20233;-67
2023/11/23 08:54:23;;;;;;;17.00;15.13;;;4.60;99.90;;;5.14;89.34;98987.91;10196307;29;20247;-67
2023/11/23 08:59:27;;;;;;;14.30;12.80;;;4.60;99.90;;;5.62;86.51;98980.63;10192816;29;21536;-65
2023/11/23 09:04:34;;;;;;;19.53;17.07;;;5.00;99.90;;;5.92;82.67;98964.84;10192602;28;21947;-66
2023/11/23 09:09:47;;;;;;;13.70;11.50;;;5.30;99.90;;;6.20;81.03;98963.25;10192670;29;20299;-65
2023/11/23 09:14:53;;;;;;;13.63;12.20;;;5.40;99.90;;;6.22;81.22;98951.59;10286983;28;20313;-66
2023/11/23 09:19:56;;;;;;;9.67;8.63;;;5.40;99.90;;;5.99;79.33;98956.22;10245196;28;20240;-66
2023/11/23 09:25:00;;;;;;;10.20;8.83;;;5.20;99.90;;;5.84;79.96;98946.41;10210235;28;20246;-66
2023/11/23 09:30:07;;;;;;;9.60;8.70;;;5.00;99.90;;;5.87;81.92;98946.66;10211052;28;20316;-67
2023/11/23 09:35:10;;;;;;;9.73;8.83;;;5.00;99.90;;;6.13;80.82;98929.56;10234618;28;20252;-66
2023/11/23 09:40:18;;;;;;;8.80;8.00;;;5.40;99.90;;;6.19;80.92;98913.25;10214201;28;20316;-65
2023/11/23 09:45:24;;;;;;;11.00;9.90;;;5.30;99.90;;;6.13;80.38;98894.91;10234152;28;20242;-67
2023/11/23 09:50:29;;;;;;;9.07;8.27;;;5.40;99.90;;;6.08;81.11;98886.88;10274334;28;20320;-67
2023/11/23 09:55:39;;;;;;;10.47;9.30;;;5.20;99.90;;;5.95;81.27;98888.16;10191998;28;20236;-67
2023/11/23 10:00:43;;;;;;;9.70;8.70;;;5.10;99.90;;;5.94;82.56;98864.44;10187977;28;20229;-67
2023/11/23 10:05:46;;;;;;;10.60;9.60;;;5.00;99.90;;;5.97;81.16;98863.81;10189018;28;20236;-67
2023/11/23 10:10:51;;;;;;;10.03;9.13;;;5.10;99.90;;;6.05;81.75;98860.34;10288856;28;20232;-67
2023/11/23 10:15:55;;;;;;;10.73;9.63;;;5.10;99.90;;;6.13;82.21;98854.31;10200739;28;20249;-67
2023/11/23 10:20:59;;;;;;;8.90;8.10;;;5.10;99.90;;;6.27;80.90;98836.13;10180590;28;20220;-67
2023/11/23 10:26:03;;;;;;;8.83;8.13;;;5.30;99.90;;;6.09;82.05;98839.53;10189020;29;20383;-69
2023/11/23 10:31:07;;;;;;;10.17;9.00;;;5.30;99.90;;;6.04;82.69;98833.19;10194661;29;20241;-67
2023/11/23 10:36:17;;;;;;;8.87;8.17;;;5.20;99.90;;;6.13;83.72;98835.66;10271994;28;20273;-66
2023/11/23 10:41:20;;;;;;;9.07;8.20;;;5.20;99.90;;;6.03;83.43;98826.31;10232429;28;20280;-67
2023/11/23 10:46:25;;;;;;;8.60;7.67;;;5.30;99.90;;;6.03;84.56;98811.09;10213454;28;20312;-68
2023/11/23 10:51:30;;;;;;;9.97;8.47;;;5.30;99.90;;;6.04;84.59;98807.81;10189591;28;20321;-67
2023/11/23 10:56:35;;;;;;;7.73;7.03;;;5.40;99.90;;;6.26;84.53;98793.72;10272006;28;20226;-67
2023/11/23 11:01:40;;;;;;;5.93;5.40;;;5.50;99.90;;;6.26;82.86;98788.63;10254312;28;20600;-66
2023/11/23 11:06:47;;;;;;;6.57;5.97;;;5.40;99.90;;;6.15;84.41;98786.78;10217101;28;20232;-66
2023/11/23 11:11:56;;;;;;;6.90;6.30;;;5.40;99.90;;;6.08;85.74;98771.78;10216730;28;20253;-67
2023/11/23 11:17:05;;;;;;;15.47;12.07;;;5.40;99.90;;;6.08;87.47;98771.78;10217894;28;20604;-67
2023/11/23 11:22:13;;;;;;;26.83;19.60;;;5.40;99.90;;;6.17;88.39;98767.53;10207244;28;20240;-68
2023/11/23 11:27:20;;;;;;;11.23;10.13;;;5.40;99.90;;;6.19;87.43;98755.88;10231029;28;20321;-67
2023/11/23 11:32:32;;;;;;;9.37;8.50;;;5.50;99.90;;;6.32;87.71;98750.19;10216901;28;20248;-66
2023/11/23 11:37:36;;;;;;;7.80;7.03;;;5.60;99.90;;;6.48;87.58;98752.44;10216269;28;20234;-66
2023/11/23 11:42:40;;;;;;;7.37;6.67;;;5.80;99.90;;;6.67;88.59;98758.38;10210089;28;20291;-66
2023/11/23 11:47:45;;;;;;;6.33;5.73;;;5.90;99.90;;;6.80;88.16;98751.81;10214119;28;20237;-66
2023/11/23 11:52:49;;;;;;;7.43;6.83;;;6.00;99.90;;;6.74;88.08;98740.34;10208504;28;20233;-66
2023/11/23 11:57:52;;;;;;;8.07;7.27;;;5.90;99.90;;;6.63;88.76;98737.66;10218814;28;20225;-66
2023/11/23 12:02:57;;;;;;;6.73;6.23;;;5.90;99.90;;;6.64;89.32;98720.00;10198457;28;20249;-66
2023/11/23 12:08:01;;;;;;;6.83;6.23;;;6.00;99.90;;;6.63;89.81;98712.25;10206236;28;20241;-66
2023/11/23 12:13:04;;;;;;;8.00;7.20;;;5.90;99.90;;;6.67;90.58;98705.03;10209862;28;20236;-66
2023/11/23 12:18:08;;;;;;;6.87;6.27;;;5.90;99.90;;;6.73;89.69;98697.03;10210800;28;20315;-66
2023/11/23 12:23:12;;;;;;;6.20;5.70;;;5.90;99.90;;;6.74;89.59;98681.03;10222311;28;20303;-66
2023/11/23 12:28:20;;;;;;;6.20;5.67;;;6.00;99.90;;;6.77;89.57;98666.94;10191638;28;20235;-66
2023/11/23 12:33:24;;;;;;;5.83;5.33;;;6.00;99.90;;;6.72;90.39;98652.97;10222655;28;20240;-67
2023/11/23 12:38:28;;;;;;;6.17;5.67;;;6.00;99.90;;;6.77;89.62;98644.06;10221730;28;20241;-66
2023/11/23 12:43:31;;;;;;;6.03;5.53;;;6.00;99.90;;;6.80;89.79;98618.03;10205911;28;20247;-66
2023/11/23 12:48:35;;;;;;;7.37;6.67;;;6.10;99.90;;;7.02;88.33;98608.00;10221238;28;20324;-66
2023/11/23 12:53:39;;;;;;;6.23;5.63;;;6.20;99.90;;;6.98;88.92;98611.97;10208390;28;20252;-66
2023/11/23 12:58:42;;;;;;;5.97;5.47;;;6.20;99.90;;;7.01;89.62;98596.06;10192079;29;20229;-67
2023/11/23 13:03:47;;;;;;;7.23;6.63;;;6.20;99.90;;;7.14;88.37;98582.72;10193001;29;20235;-66
2023/11/23 13:08:50;;;;;;;6.40;5.80;;;6.30;99.90;;;7.12;88.67;98571.53;10256380;28;20232;-66
2023/11/23 13:13:53;;;;;;;8.80;7.90;;;6.40;99.90;;;7.22;88.82;98571.53;10256750;28;20239;-66
2023/11/23 13:18:58;;;;;;;5.33;4.83;;;6.40;99.90;;;7.45;87.46;98581.00;10195422;28;20221;-67
2023/11/23 13:24:21;;;;;;;4.97;4.50;;;6.50;99.90;;;7.56;86.69;98570.03;10188141;28;20237;-67
2023/11/23 13:29:25;;;;;;;5.10;4.70;;;6.80;99.90;;;7.47;87.49;98576.94;10189525;29;20315;-67
2023/11/23 13:34:30;;;;;;;4.40;4.10;;;6.70;99.90;;;7.47;88.12;98569.31;10188710;28;20411;-67
2023/11/23 13:39:36;;;;;;;5.17;4.70;;;6.70;99.90;;;7.49;87.23;98582.13;10193991;28;20224;-66
2023/11/23 13:44:39;;;;;;;5.10;4.50;;;6.90;99.90;;;7.46;87.77;98567.50;10192315;29;20233;-66
2023/11/23 13:49:44;;;;;;;6.87;6.37;;;6.70;99.90;;;7.55;88.80;98560.63;10192585;29;20235;-67
2023/11/23 13:54:47;;;;;;;4.63;4.23;;;6.80;99.90;;;7.51;88.92;98550.97;10191340;28;20333;-67
2023/11/23 13:59:51;;;;;;;3.70;3.30;;;6.70;99.90;;;7.51;88.76;98540.78;10191069;29;20251;-66
2023/11/23 14:04:55;;;;;;;4.70;4.23;;;6.80;99.90;;;7.72;88.36;98538.19;10188971;29;20235;-67
2023/11/23 14:09:59;;;;;;;3.90;3.60;;;6.90;99.90;;;7.54;89.58;98528.31;10188421;28;20482;-67
2023/11/23 14:15:03;;;;;;;4.75;4.20;;;6.90;99.90;;;7.52;90.42;98511.16;10187582;29;20237;-66
2023/11/23 14:20:09;;;;;;;4.60;4.20;;;6.90;99.90;;;7.54;90.85;98495.25;10195447;28;20298;-67
2023/11/23 14:25:16;;;;;;;4.63;3.90;;;6.90;99.90;;;7.85;89.10;98498.53;10191057;28;20665;-67
2023/11/23 14:30:21;;;;;;;3.83;3.53;;;7.10;99.90;;;7.77;89.81;98494.50;10198442;28;20282;-66
2023/11/23 14:35:26;;;;;;;3.77;3.47;;;7.00;99.90;;;7.53;92.26;98506.22;10243194;28;20232;-66
2023/11/23 14:40:29;;;;;;;3.70;3.40;;;6.90;99.90;;;7.62;92.76;98478.94;10191386;28;20315;-67
2023/11/23 14:45:32;;;;;;;3.10;2.73;;;6.90;99.90;;;7.60;92.19;98469.41;10185131;28;20229;-67
2023/11/23 14:50:37;;;;;;;3.57;3.27;;;6.90;99.90;;;7.64;93.16;98466.31;10186637;28;20245;-66
2023/11/23 14:55:40;;;;;;;4.37;4.03;;;6.90;99.90;;;7.58;93.95;98466.75;10192925;29;20241;-67
2023/11/23 15:00:43;;;;;;;5.68;5.20;;;6.80;99.90;;;7.50;95.60;98483.06;10182797;28;20620;-67
2023/11/23 15:05:49;;;;;;;4.07;3.77;;;6.80;99.90;;;7.41;95.70;98472.16;10188876;28;20240;-67
2023/11/23 15:10:52;;;;;;;51.80;33.30;;;6.80;99.90;;;7.43;96.51;98470.63;10185546;28;20236;-66
2023/11/23 15:15:55;;;;;;;9.17;7.33;;;6.80;99.90;;;7.38;95.88;98471.91;10199750;28;20225;-67
2023/11/23 15:21:00;;;;;;;11.23;9.17;;;6.80;99.90;;;7.42;95.88;98489.22;10223545;28;20229;-67
2023/11/23 15:26:05;;;;;;;14.33;10.90;;;6.80;99.90;;;7.47;95.96;98482.84;10201911;28;20260;-67
2023/11/23 15:31:08;;;;;;;21.83;15.60;;;6.80;99.90;;;7.47;95.98;98475.22;10192630;28;20252;-66
2023/11/23 15:36:13;;;;;;;92.73;58.77;;;6.80;99.90;;;7.49;96.67;98471.09;10191904;28;20312;-67
2023/11/23 15:41:17;;;;;;;27.17;19.20;;;6.80;99.90;;;7.55;96.17;98465.63;10259709;28;20307;-66
2023/11/23 15:46:25;;;;;;;7.17;5.53;;;6.90;99.90;;;7.75;95.49;98464.63;10197658;28;20233;-66
2023/11/23 15:51:31;;;;;;;14.83;9.67;;;6.90;99.90;;;7.62;96.62;98453.50;10247885;28;20321;-67
2023/11/23 15:56:35;;;;;;;3.47;3.27;;;6.90;99.90;;;7.56;96.68;98432.69;10216514;28;20236;-66
2023/11/23 16:01:39;;;;;;;2.87;2.60;;;6.90;99.90;;;7.56;97.04;98426.72;10248178;28;20275;-66
2023/11/23 16:06:45;;;;;;;3.13;2.93;;;6.80;99.90;;;7.66;94.96;98424.97;10247289;28;20640;-67
2023/11/23 16:11:49;;;;;;;2.77;2.60;;;7.00;99.90;;;7.72;94.67;98418.59;10254696;28;20237;-66
2023/11/23 16:16:52;;;;;;;8.23;7.53;;;7.10;99.90;;;7.66;94.50;98394.44;10180883;28;20713;-66
2023/11/23 16:21:56;;;;;;;5.00;4.60;;;7.10;99.90;;;7.61;95.05;98379.59;10249610;28;21184;-67
2023/11/23 16:27:00;;;;;;;4.53;4.07;;;6.90;99.90;;;7.65;94.49;98394.34;10188609;28;20228;-67
2023/11/23 16:32:03;;;;;;;6.27;5.67;;;7.00;99.90;;;7.62;94.36;98391.56;10195029;28;20229;-66
2023/11/23 16:37:08;;;;;;;3.13;2.93;;;7.00;99.90;;;7.67;93.82;98393.69;10261375;28;20229;-67
2023/11/23 16:42:14;;;;;;;6.53;5.93;;;7.00;99.90;;;7.67;93.31;98387.72;10193483;28;20259;-66
2023/11/23 16:47:17;;;;;;;2.43;2.33;;;7.20;99.90;;;7.55;93.56;98369.84;10200152;29;20595;-65
2023/11/23 16:52:22;;;;;;;2.87;2.67;;;7.10;99.90;;;7.56;93.61;98351.28;10184886;28;20234;-66
2023/11/23 16:57:25;;;;;;;2.63;2.43;;;7.10;99.90;;;7.50;94.07;98350.81;10213028;28;20634;-65
2023/11/23 17:02:28;;;;;;;2.77;2.57;;;7.00;99.90;;;7.58;93.34;98357.38;10237804;28;20745;-66
2023/11/23 17:07:33;;;;;;;4.13;3.83;;;7.10;99.90;;;7.68;93.64;98357.31;10227989;28;20237;-65
2023/11/23 17:12:36;;;;;;;4.30;3.90;;;7.20;99.90;;;7.48;93.96;98342.19;10200410;28;20237;-67
2023/11/23 17:17:44;;;;;;;24.30;13.20;;;7.10;99.90;;;7.59;93.71;98336.25;10210555;28;20225;-66
2023/11/23 17:22:49;;;;;;;4.07;3.67;;;7.30;99.90;;;7.55;93.86;98318.09;10206445;28;20218;-66
2023/11/23 17:27:54;;;;;;;4.83;4.20;;;7.10;99.90;;;7.61;93.46;98322.00;10199354;28;20226;-66
2023/11/23 17:32:57;;;;;;;3.50;3.20;;;7.10;99.90;;;7.58;92.87;98324.31;10191049;28;20240;-65
2023/11/23 17:38:02;;;;;;;3.27;3.07;;;7.20;99.90;;;7.57;93.45;98325.06;10196459;28;20694;-64
2023/11/23 17:43:05;;;;;;;5.33;4.63;;;7.00;99.90;;;7.53;94.73;98319.66;10192981;28;20718;-67
2023/11/23 17:48:08;;;;;;;15.53;10.70;;;6.80;99.90;;;7.55;93.95;98334.22;10173097;28;20253;-66
2023/11/23 17:53:13;;;;;;;6.97;6.37;;;7.00;99.90;;;7.55;94.08;98324.06;10165395;28;20272;-67
2023/11/23 17:58:17;;;;;;;5.73;5.33;;;6.90;99.90;;;7.54;94.46;98326.50;10180990;28;20236;-66
2023/11/23 18:03:20;;;;;;;3.97;3.77;;;6.90;99.90;;;7.66;93.19;98318.13;10166718;28;20241;-67
2023/11/23 18:08:25;;;;;;;3.50;3.20;;;6.90;99.90;;;7.62;93.36;98305.06;10160183;28;20308;-66
2023/11/23 18:13:29;;;;;;;3.70;3.50;;;7.00;99.90;;;7.70;92.67;98288.75;10159892;28;20240;-67
2023/11/23 18:18:33;;;;;;;2.40;2.30;;;7.10;99.90;;;7.61;93.38;98281.31;10167556;28;20229;-66
2023/11/23 18:23:38;;;;;;;4.50;4.20;;;7.00;99.90;;;7.67;92.52;98268.16;10167989;28;20236;-65
2023/11/23 18:28:41;;;;;;;5.07;4.77;;;7.10;99.90;;;7.64;92.60;98262.81;10166286;28;20316;-65
2023/11/23 18:33:44;;;;;;;4.67;4.27;;;7.30;99.90;;;7.76;92.59;98263.75;10173839;28;20233;-65
2023/11/23 18:38:49;;;;;;;3.47;3.27;;;7.20;99.90;;;7.80;91.56;98253.00;10160710;28;20290;-66
2023/11/23 18:43:52;;;;;;;4.00;3.80;;;7.30;99.90;;;7.64;92.50;98252.63;10157313;28;20229;-65
2023/11/23 18:48:55;;;;;;;3.57;3.27;;;7.20;99.90;;;7.73;91.92;98255.88;10165696;28;20920;-66
2023/11/23 18:54:00;;;;;;;5.03;4.63;;;7.30;99.90;;;7.72;91.77;98271.03;10166408;28;20229;-66
2023/11/23 18:59:04;;;;;;;5.53;5.03;;;7.30;99.90;;;7.79;92.24;98260.56;10215092;28;20282;-66
2023/11/23 19:04:07;;;;;;;4.30;4.00;;;7.20;99.90;;;7.76;92.92;98245.94;10166030;28;20238;-67
2023/11/23 19:09:14;;;;;;;4.60;4.30;;;7.10;99.90;;;7.75;92.35;98241.59;10170106;28;20255;-65
2023/11/23 19:14:18;;;;;;;3.87;3.57;;;7.20;99.90;;;7.84;92.81;98244.84;10165655;28;20716;-66
2023/11/23 19:19:22;;;;;;;6.10;5.50;;;7.10;99.90;;;7.76;93.17;98237.44;10166117;28;20244;-67
2023/11/23 19:24:28;;;;;;;9.27;6.77;;;7.10;99.90;;;7.66;93.94;98221.47;10173540;28;20224;-65
2023/11/23 19:29:32;;;;;;;76.70;43.90;;;7.00;99.90;;;7.90;92.83;98206.25;10173587;28;20233;-66
2023/11/23 19:34:49;;;;;;;15.83;10.33;;;7.20;99.90;;;7.90;93.72;98221.50;10170909;28;20261;-65
2023/11/23 19:39:54;;;;;;;39.10;25.97;;;7.30;99.90;;;7.74;95.91;98203.34;10173142;28;20229;-65
2023/11/23 19:44:58;;;;;;;8.73;7.83;;;7.10;99.90;;;7.79;95.79;98184.22;10177398;28;20232;-65
2023/11/23 19:50:02;;;;;;;7.83;7.07;;;7.20;99.90;;;7.58;98.35;98166.63;10177299;28;21198;-65
2023/11/23 19:55:08;;;;;;;11.40;10.20;;;7.00;99.90;;;7.49;99.03;98185.38;10234916;28;20241;-66
2023/11/23 20:00:13;;;;;;;5.87;5.47;;;6.90;99.90;;;7.56;99.83;98185.97;10173823;28;20233;-65
2023/11/23 20:05:17;;;;;;;4.00;3.70;;;6.90;99.90;;;7.51;100.00;98174.56;10176147;28;20240;-66
2023/11/23 20:10:22;;;;;;;6.47;5.93;;;6.90;99.90;;;7.59;99.56;98181.09;10172727;28;20236;-66
2023/11/23 20:15:25;;;;;;;7.10;6.60;;;6.90;99.90;;;7.53;100.00;98175.56;10182014;28;20243;-65
2023/11/23 20:20:29;;;;;;;4.37;4.07;;;6.90;99.90;;;7.45;100.00;98179.19;10190171;28;20237;-66
2023/11/23 20:25:33;;;;;;;6.10;5.50;;;6.90;99.90;;;7.35;100.00;98191.97;10216980;28;20247;-67
2023/11/23 20:30:38;;;;;;;5.77;5.27;;;6.80;99.90;;;7.32;100.00;98189.22;10177723;28;20622;-66
2023/11/23 20:35:41;;;;;;;3.33;3.13;;;6.80;99.90;;;7.60;100.00;98166.72;10186814;28;20671;-66
2023/11/23 20:40:45;;;;;;;3.30;3.10;;;6.90;99.90;;;7.35;100.00;98130.94;10190616;28;20229;-64
2023/11/23 20:45:49;;;;;;;3.23;3.03;;;6.70;99.90;;;7.28;100.00;98126.19;10193894;28;20244;-65
2023/11/23 20:50:52;;;;;;;6.67;5.30;;;6.60;99.90;;;7.36;100.00;98120.91;10187944;28;20229;-65
2023/11/23 20:55:58;;;;;;;4.70;4.40;;;6.70;99.90;;;7.30;100.00;98091.63;10197525;28;20789;-66
2023/11/23 21:01:02;;;;;;;3.67;3.47;;;6.70;99.90;;;7.36;100.00;98074.25;10192242;28;20221;-65
2023/11/23 21:06:09;;;;;;;4.00;3.80;;;6.70;99.90;;;7.41;100.00;98060.19;10195045;28;20612;-67
2023/11/23 21:11:13;;;;;;;3.57;3.27;;;6.70;99.90;;;7.40;100.00;98051.69;10187573;28;20332;-65